sensor_id;sensor_type;location;lat;lon;timestamp;P1;durP1;ratioP1;P2;durP2;ratioP2
60726;SDS011;46577;49.004;12.120;2023-05-07T00:01:01;8.60;;;5.40;;
60726;SDS011;46577;49.004;12.120;2023-05-07T00:03:27;6.07;;;5.17;;
60726;SDS011;46577;49.004;12.120;2023-05-07T00:05:53;8.80;;;5.80;;
60726;SDS011;46577;49.004;12.120;2023-05-07T00:08:19;7.00;;;5.33;;
60726;SDS011;46577;49.004;12.120;2023-05-07T00:10:45;9.20;;;5.83;;
60726;SDS011;46577;49.004;12.120;2023-05-07T00:13:11;7.37;;;5.30;;
60726;SDS011;46577;49.004;12.120;2023-05-07T00:15:37;8.90;;;6.17;;
60726;SDS011;46577;49.004;12.120;2023-05-07T00:18:03;9.90;;;6.20;;
60726;SDS011;46577;49.004;12.120;2023-05-07T00:20:29;9.43;;;5.93;;
60726;SDS011;46577;49.004;12.120;2023-05-07T00:22:54;8.37;;;6.50;;
60726;SDS011;46577;49.004;12.120;2023-05-07T00:25:20;8.03;;;5.50;;
60726;SDS011;46577;49.004;12.120;2023-05-07T00:27:45;6.37;;;5.57;;
60726;SDS011;46577;49.004;12.120;2023-05-07T00:30:11;8.83;;;6.10;;
60726;SDS011;46577;49.004;12.120;2023-05-07T00:32:37;7.27;;;6.30;;
60726;SDS011;46577;49.004;12.120;2023-05-07T00:35:03;7.40;;;6.00;;
60726;SDS011;46577;49.004;12.120;2023-05-07T00:37:30;6.97;;;5.70;;
60726;SDS011;46577;49.004;12.120;2023-05-07T00:39:56;9.03;;;6.00;;
60726;SDS011;46577;49.004;12.120;2023-05-07T00:42:22;9.30;;;6.33;;
60726;SDS011;46577;49.004;12.120;2023-05-07T00:44:47;8.90;;;6.47;;
60726;SDS011;46577;49.004;12.120;2023-05-07T00:47:13;8.37;;;6.60;;
60726;SDS011;46577;49.004;12.120;2023-05-07T00:49:43;7.70;;;5.60;;
60726;SDS011;46577;49.004;12.120;2023-05-07T00:52:13;6.10;;;5.60;;
60726;SDS011;46577;49.004;12.120;2023-05-07T00:54:41;7.03;;;5.70;;
60726;SDS011;46577;49.004;12.120;2023-05-07T00:57:07;10.80;;;6.70;;
60726;SDS011;46577;49.004;12.120;2023-05-07T00:59:35;8.37;;;5.70;;
60726;SDS011;46577;49.004;12.120;2023-05-07T01:02:00;10.03;;;6.90;;
60726;SDS011;46577;49.004;12.120;2023-05-07T01:04:26;7.43;;;6.10;;
60726;SDS011;46577;49.004;12.120;2023-05-07T01:06:52;8.63;;;6.33;;
60726;SDS011;46577;49.004;12.120;2023-05-07T01:09:21;7.57;;;5.70;;
60726;SDS011;46577;49.004;12.120;2023-05-07T01:11:47;7.33;;;5.73;;
60726;SDS011;46577;49.004;12.120;2023-05-07T01:14:14;7.57;;;6.30;;
60726;SDS011;46577;49.004;12.120;2023-05-07T01:16:39;7.60;;;6.07;;
60726;SDS011;46577;49.004;12.120;2023-05-07T01:19:07;7.37;;;6.50;;
60726;SDS011;46577;49.004;12.120;2023-05-07T01:21:33;6.20;;;5.60;;
60726;SDS011;46577;49.004;12.120;2023-05-07T01:24:02;8.43;;;6.00;;
60726;SDS011;46577;49.004;12.120;2023-05-07T01:26:28;9.47;;;5.90;;
60726;SDS011;46577;49.004;12.120;2023-05-07T01:28:54;9.77;;;5.80;;
60726;SDS011;46577;49.004;12.120;2023-05-07T01:31:19;8.03;;;6.33;;
60726;SDS011;46577;49.004;12.120;2023-05-07T01:33:46;11.67;;;6.50;;
60726;SDS011;46577;49.004;12.120;2023-05-07T01:36:14;7.77;;;6.97;;
60726;SDS011;46577;49.004;12.120;2023-05-07T01:38:42;13.80;;;7.47;;
60726;SDS011;46577;49.004;12.120;2023-05-07T01:41:08;10.90;;;6.27;;
60726;SDS011;46577;49.004;12.120;2023-05-07T01:43:34;10.23;;;6.10;;
60726;SDS011;46577;49.004;12.120;2023-05-07T01:46:00;9.30;;;6.70;;
60726;SDS011;46577;49.004;12.120;2023-05-07T01:48:27;9.77;;;6.43;;
60726;SDS011;46577;49.004;12.120;2023-05-07T01:50:53;8.23;;;6.40;;
60726;SDS011;46577;49.004;12.120;2023-05-07T01:53:20;15.07;;;5.90;;
60726;SDS011;46577;49.004;12.120;2023-05-07T01:55:46;8.60;;;6.27;;
60726;SDS011;46577;49.004;12.120;2023-05-07T01:58:11;12.90;;;8.00;;
60726;SDS011;46577;49.004;12.120;2023-05-07T02:00:37;9.97;;;6.90;;
60726;SDS011;46577;49.004;12.120;2023-05-07T02:03:02;10.07;;;6.87;;
60726;SDS011;46577;49.004;12.120;2023-05-07T02:05:28;8.70;;;6.83;;
60726;SDS011;46577;49.004;12.120;2023-05-07T02:07:54;9.80;;;7.17;;
60726;SDS011;46577;49.004;12.120;2023-05-07T02:10:19;10.10;;;7.07;;
60726;SDS011;46577;49.004;12.120;2023-05-07T02:12:45;10.43;;;7.43;;
60726;SDS011;46577;49.004;12.120;2023-05-07T02:15:10;11.10;;;8.07;;
60726;SDS011;46577;49.004;12.120;2023-05-07T02:17:39;12.47;;;7.17;;
60726;SDS011;46577;49.004;12.120;2023-05-07T02:20:22;11.67;;;7.60;;
60726;SDS011;46577;49.004;12.120;2023-05-07T02:22:48;10.60;;;7.57;;
60726;SDS011;46577;49.004;12.120;2023-05-07T02:25:13;10.83;;;8.30;;
60726;SDS011;46577;49.004;12.120;2023-05-07T02:27:39;9.80;;;7.60;;
60726;SDS011;46577;49.004;12.120;2023-05-07T02:30:05;10.27;;;7.77;;
60726;SDS011;46577;49.004;12.120;2023-05-07T02:32:31;12.63;;;9.50;;
60726;SDS011;46577;49.004;12.120;2023-05-07T02:34:56;15.47;;;9.17;;
60726;SDS011;46577;49.004;12.120;2023-05-07T02:37:22;10.23;;;8.10;;
60726;SDS011;46577;49.004;12.120;2023-05-07T02:39:47;15.83;;;9.00;;
60726;SDS011;46577;49.004;12.120;2023-05-07T02:42:13;14.83;;;9.00;;
60726;SDS011;46577;49.004;12.120;2023-05-07T02:44:39;11.20;;;9.83;;
60726;SDS011;46577;49.004;12.120;2023-05-07T02:47:04;11.20;;;8.90;;
60726;SDS011;46577;49.004;12.120;2023-05-07T02:49:33;16.23;;;9.33;;
60726;SDS011;46577;49.004;12.120;2023-05-07T02:51:58;12.50;;;9.40;;
60726;SDS011;46577;49.004;12.120;2023-05-07T02:54:24;13.30;;;10.73;;
60726;SDS011;46577;49.004;12.120;2023-05-07T02:56:50;15.33;;;10.70;;
60726;SDS011;46577;49.004;12.120;2023-05-07T02:59:15;13.13;;;9.97;;
60726;SDS011;46577;49.004;12.120;2023-05-07T03:01:41;13.30;;;10.60;;
60726;SDS011;46577;49.004;12.120;2023-05-07T03:04:08;13.67;;;9.63;;
60726;SDS011;46577;49.004;12.120;2023-05-07T03:06:35;17.63;;;11.20;;
60726;SDS011;46577;49.004;12.120;2023-05-07T03:09:01;11.10;;;9.87;;
60726;SDS011;46577;49.004;12.120;2023-05-07T03:11:27;16.37;;;11.50;;
60726;SDS011;46577;49.004;12.120;2023-05-07T03:13:53;12.60;;;10.93;;
60726;SDS011;46577;49.004;12.120;2023-05-07T03:16:19;12.53;;;10.47;;
60726;SDS011;46577;49.004;12.120;2023-05-07T03:18:44;15.47;;;11.37;;
60726;SDS011;46577;49.004;12.120;2023-05-07T03:21:10;12.50;;;10.40;;
60726;SDS011;46577;49.004;12.120;2023-05-07T03:23:35;13.00;;;10.10;;
60726;SDS011;46577;49.004;12.120;2023-05-07T03:26:01;13.90;;;9.40;;
60726;SDS011;46577;49.004;12.120;2023-05-07T03:28:27;12.00;;;10.37;;
60726;SDS011;46577;49.004;12.120;2023-05-07T03:30:52;13.70;;;10.70;;
60726;SDS011;46577;49.004;12.120;2023-05-07T03:33:18;14.83;;;10.17;;
60726;SDS011;46577;49.004;12.120;2023-05-07T03:35:43;15.10;;;11.50;;
60726;SDS011;46577;49.004;12.120;2023-05-07T03:38:09;15.20;;;11.47;;
60726;SDS011;46577;49.004;12.120;2023-05-07T03:40:34;15.93;;;12.17;;
60726;SDS011;46577;49.004;12.120;2023-05-07T03:43:00;14.27;;;11.10;;
60726;SDS011;46577;49.004;12.120;2023-05-07T03:45:26;16.67;;;11.07;;
60726;SDS011;46577;49.004;12.120;2023-05-07T03:47:51;16.33;;;11.87;;
60726;SDS011;46577;49.004;12.120;2023-05-07T03:50:17;16.67;;;12.00;;
60726;SDS011;46577;49.004;12.120;2023-05-07T03:52:42;17.83;;;12.50;;
60726;SDS011;46577;49.004;12.120;2023-05-07T03:55:08;14.17;;;11.50;;
60726;SDS011;46577;49.004;12.120;2023-05-07T03:57:34;17.93;;;11.77;;
60726;SDS011;46577;49.004;12.120;2023-05-07T04:00:00;14.87;;;12.03;;
60726;SDS011;46577;49.004;12.120;2023-05-07T04:02:25;15.63;;;12.57;;
60726;SDS011;46577;49.004;12.120;2023-05-07T04:04:51;15.97;;;11.83;;
60726;SDS011;46577;49.004;12.120;2023-05-07T04:07:17;13.50;;;11.17;;
60726;SDS011;46577;49.004;12.120;2023-05-07T04:09:42;14.27;;;11.43;;
60726;SDS011;46577;49.004;12.120;2023-05-07T04:12:08;15.87;;;11.60;;
60726;SDS011;46577;49.004;12.120;2023-05-07T04:14:33;20.47;;;12.17;;
60726;SDS011;46577;49.004;12.120;2023-05-07T04:16:59;16.27;;;11.40;;
60726;SDS011;46577;49.004;12.120;2023-05-07T04:19:25;14.87;;;11.00;;
60726;SDS011;46577;49.004;12.120;2023-05-07T04:21:50;15.90;;;12.03;;
60726;SDS011;46577;49.004;12.120;2023-05-07T04:24:16;15.63;;;10.93;;
60726;SDS011;46577;49.004;12.120;2023-05-07T04:26:41;13.97;;;10.90;;
60726;SDS011;46577;49.004;12.120;2023-05-07T04:29:07;13.30;;;9.80;;
60726;SDS011;46577;49.004;12.120;2023-05-07T04:31:32;15.10;;;10.47;;
60726;SDS011;46577;49.004;12.120;2023-05-07T04:33:58;22.37;;;10.73;;
60726;SDS011;46577;49.004;12.120;2023-05-07T04:36:24;12.23;;;9.37;;
60726;SDS011;46577;49.004;12.120;2023-05-07T04:38:52;13.13;;;9.40;;
60726;SDS011;46577;49.004;12.120;2023-05-07T04:41:18;14.37;;;10.13;;
60726;SDS011;46577;49.004;12.120;2023-05-07T04:43:44;11.50;;;9.47;;
60726;SDS011;46577;49.004;12.120;2023-05-07T04:46:09;12.93;;;10.40;;
60726;SDS011;46577;49.004;12.120;2023-05-07T04:48:35;12.10;;;9.33;;
60726;SDS011;46577;49.004;12.120;2023-05-07T04:51:01;11.90;;;9.30;;
60726;SDS011;46577;49.004;12.120;2023-05-07T04:53:26;14.60;;;9.23;;
60726;SDS011;46577;49.004;12.120;2023-05-07T04:55:58;11.50;;;9.47;;
60726;SDS011;46577;49.004;12.120;2023-05-07T04:58:23;11.83;;;8.17;;
60726;SDS011;46577;49.004;12.120;2023-05-07T05:00:49;9.73;;;8.30;;
60726;SDS011;46577;49.004;12.120;2023-05-07T05:03:15;9.40;;;7.97;;
60726;SDS011;46577;49.004;12.120;2023-05-07T05:05:40;9.17;;;7.70;;
60726;SDS011;46577;49.004;12.120;2023-05-07T05:08:06;9.27;;;7.07;;
60726;SDS011;46577;49.004;12.120;2023-05-07T05:10:31;10.63;;;7.70;;
60726;SDS011;46577;49.004;12.120;2023-05-07T05:12:57;7.83;;;7.03;;
60726;SDS011;46577;49.004;12.120;2023-05-07T05:15:23;7.97;;;7.17;;
60726;SDS011;46577;49.004;12.120;2023-05-07T05:17:48;7.63;;;6.80;;
60726;SDS011;46577;49.004;12.120;2023-05-07T05:20:14;9.00;;;5.90;;
60726;SDS011;46577;49.004;12.120;2023-05-07T05:22:41;15.47;;;6.40;;
60726;SDS011;46577;49.004;12.120;2023-05-07T05:25:07;7.70;;;6.27;;
60726;SDS011;46577;49.004;12.120;2023-05-07T05:27:32;9.10;;;7.90;;
60726;SDS011;46577;49.004;12.120;2023-05-07T05:29:59;16.90;;;10.67;;
60726;SDS011;46577;49.004;12.120;2023-05-07T05:32:24;17.03;;;9.53;;
60726;SDS011;46577;49.004;12.120;2023-05-07T05:34:50;10.87;;;8.47;;
60726;SDS011;46577;49.004;12.120;2023-05-07T05:37:16;8.97;;;7.30;;
60726;SDS011;46577;49.004;12.120;2023-05-07T05:39:41;10.40;;;7.87;;
60726;SDS011;46577;49.004;12.120;2023-05-07T05:42:07;14.33;;;7.33;;
60726;SDS011;46577;49.004;12.120;2023-05-07T05:44:33;8.30;;;6.53;;
60726;SDS011;46577;49.004;12.120;2023-05-07T05:46:58;9.33;;;7.30;;
60726;SDS011;46577;49.004;12.120;2023-05-07T05:49:24;8.13;;;6.60;;
60726;SDS011;46577;49.004;12.120;2023-05-07T05:51:50;8.63;;;6.43;;
60726;SDS011;46577;49.004;12.120;2023-05-07T05:54:15;14.13;;;7.50;;
60726;SDS011;46577;49.004;12.120;2023-05-07T05:56:41;8.57;;;6.47;;
60726;SDS011;46577;49.004;12.120;2023-05-07T05:59:07;9.77;;;7.20;;
60726;SDS011;46577;49.004;12.120;2023-05-07T06:01:33;9.80;;;6.90;;
60726;SDS011;46577;49.004;12.120;2023-05-07T06:04:00;8.10;;;7.10;;
60726;SDS011;46577;49.004;12.120;2023-05-07T06:06:26;8.47;;;6.97;;
60726;SDS011;46577;49.004;12.120;2023-05-07T06:08:52;8.00;;;7.20;;
60726;SDS011;46577;49.004;12.120;2023-05-07T06:11:17;9.40;;;7.00;;
60726;SDS011;46577;49.004;12.120;2023-05-07T06:13:43;6.87;;;6.20;;
60726;SDS011;46577;49.004;12.120;2023-05-07T06:16:09;11.37;;;7.10;;
60726;SDS011;46577;49.004;12.120;2023-05-07T06:18:34;7.90;;;6.00;;
60726;SDS011;46577;49.004;12.120;2023-05-07T06:21:01;6.67;;;5.93;;
60726;SDS011;46577;49.004;12.120;2023-05-07T06:23:26;6.13;;;5.63;;
60726;SDS011;46577;49.004;12.120;2023-05-07T06:25:52;5.43;;;4.90;;
60726;SDS011;46577;49.004;12.120;2023-05-07T06:28:17;5.70;;;5.20;;
60726;SDS011;46577;49.004;12.120;2023-05-07T06:30:43;10.27;;;5.50;;
60726;SDS011;46577;49.004;12.120;2023-05-07T06:33:09;5.23;;;4.73;;
60726;SDS011;46577;49.004;12.120;2023-05-07T06:35:34;5.50;;;5.00;;
60726;SDS011;46577;49.004;12.120;2023-05-07T06:38:00;6.30;;;5.20;;
60726;SDS011;46577;49.004;12.120;2023-05-07T06:40:26;10.63;;;6.30;;
60726;SDS011;46577;49.004;12.120;2023-05-07T06:42:52;5.70;;;4.63;;
60726;SDS011;46577;49.004;12.120;2023-05-07T06:45:18;6.30;;;4.20;;
60726;SDS011;46577;49.004;12.120;2023-05-07T06:47:45;6.20;;;4.70;;
60726;SDS011;46577;49.004;12.120;2023-05-07T06:50:10;5.57;;;5.07;;
60726;SDS011;46577;49.004;12.120;2023-05-07T06:52:36;5.50;;;4.10;;
60726;SDS011;46577;49.004;12.120;2023-05-07T06:55:01;10.03;;;4.60;;
60726;SDS011;46577;49.004;12.120;2023-05-07T06:57:27;4.87;;;4.20;;
60726;SDS011;46577;49.004;12.120;2023-05-07T06:59:53;5.00;;;4.60;;
60726;SDS011;46577;49.004;12.120;2023-05-07T07:02:18;5.43;;;4.63;;
60726;SDS011;46577;49.004;12.120;2023-05-07T07:04:44;4.43;;;4.00;;
60726;SDS011;46577;49.004;12.120;2023-05-07T07:07:10;5.57;;;5.03;;
60726;SDS011;46577;49.004;12.120;2023-05-07T07:09:35;5.23;;;4.80;;
60726;SDS011;46577;49.004;12.120;2023-05-07T07:12:01;5.57;;;5.07;;
60726;SDS011;46577;49.004;12.120;2023-05-07T07:14:27;5.47;;;5.07;;
60726;SDS011;46577;49.004;12.120;2023-05-07T07:16:52;7.40;;;5.57;;
60726;SDS011;46577;49.004;12.120;2023-05-07T07:19:18;6.73;;;5.10;;
60726;SDS011;46577;49.004;12.120;2023-05-07T07:21:45;6.20;;;5.10;;
60726;SDS011;46577;49.004;12.120;2023-05-07T07:24:10;8.43;;;5.47;;
60726;SDS011;46577;49.004;12.120;2023-05-07T07:26:36;7.47;;;5.40;;
60726;SDS011;46577;49.004;12.120;2023-05-07T07:29:02;6.30;;;4.13;;
60726;SDS011;46577;49.004;12.120;2023-05-07T07:31:27;6.27;;;4.70;;
60726;SDS011;46577;49.004;12.120;2023-05-07T07:33:53;5.87;;;4.03;;
60726;SDS011;46577;49.004;12.120;2023-05-07T07:36:18;5.87;;;4.80;;
60726;SDS011;46577;49.004;12.120;2023-05-07T07:38:44;5.00;;;4.40;;
60726;SDS011;46577;49.004;12.120;2023-05-07T07:41:09;4.23;;;3.90;;
60726;SDS011;46577;49.004;12.120;2023-05-07T07:43:35;5.37;;;4.87;;
60726;SDS011;46577;49.004;12.120;2023-05-07T07:46:01;8.47;;;4.47;;
60726;SDS011;46577;49.004;12.120;2023-05-07T07:48:26;5.47;;;4.20;;
60726;SDS011;46577;49.004;12.120;2023-05-07T07:50:52;4.90;;;4.00;;
60726;SDS011;46577;49.004;12.120;2023-05-07T07:53:17;5.20;;;4.10;;
60726;SDS011;46577;49.004;12.120;2023-05-07T07:55:43;3.40;;;3.10;;
60726;SDS011;46577;49.004;12.120;2023-05-07T07:58:09;5.03;;;3.60;;
60726;SDS011;46577;49.004;12.120;2023-05-07T08:00:35;3.93;;;2.80;;
60726;SDS011;46577;49.004;12.120;2023-05-07T08:03:00;3.13;;;2.93;;
60726;SDS011;46577;49.004;12.120;2023-05-07T08:05:28;2.00;;;1.70;;
60726;SDS011;46577;49.004;12.120;2023-05-07T08:07:54;5.07;;;2.10;;
60726;SDS011;46577;49.004;12.120;2023-05-07T08:10:20;3.80;;;1.87;;
60726;SDS011;46577;49.004;12.120;2023-05-07T08:12:49;3.93;;;2.40;;
60726;SDS011;46577;49.004;12.120;2023-05-07T08:15:15;2.63;;;2.43;;
60726;SDS011;46577;49.004;12.120;2023-05-07T08:17:42;4.50;;;2.40;;
60726;SDS011;46577;49.004;12.120;2023-05-07T08:20:08;2.50;;;2.30;;
60726;SDS011;46577;49.004;12.120;2023-05-07T08:22:34;3.57;;;3.27;;
60726;SDS011;46577;49.004;12.120;2023-05-07T08:25:00;4.10;;;3.40;;
60726;SDS011;46577;49.004;12.120;2023-05-07T08:27:26;3.50;;;3.20;;
60726;SDS011;46577;49.004;12.120;2023-05-07T08:29:52;3.17;;;2.40;;
60726;SDS011;46577;49.004;12.120;2023-05-07T08:32:18;3.03;;;2.80;;
60726;SDS011;46577;49.004;12.120;2023-05-07T08:34:44;3.20;;;2.90;;
60726;SDS011;46577;49.004;12.120;2023-05-07T08:37:09;3.10;;;2.73;;
60726;SDS011;46577;49.004;12.120;2023-05-07T08:39:35;4.50;;;2.50;;
60726;SDS011;46577;49.004;12.120;2023-05-07T08:42:00;4.93;;;3.53;;
60726;SDS011;46577;49.004;12.120;2023-05-07T08:44:28;3.50;;;2.77;;
60726;SDS011;46577;49.004;12.120;2023-05-07T08:46:58;3.20;;;2.90;;
60726;SDS011;46577;49.004;12.120;2023-05-07T08:49:27;3.57;;;2.50;;
60726;SDS011;46577;49.004;12.120;2023-05-07T08:51:53;3.33;;;3.03;;
60726;SDS011;46577;49.004;12.120;2023-05-07T08:54:18;3.70;;;3.10;;
60726;SDS011;46577;49.004;12.120;2023-05-07T08:56:45;3.33;;;3.00;;
60726;SDS011;46577;49.004;12.120;2023-05-07T08:59:11;3.40;;;3.10;;
60726;SDS011;46577;49.004;12.120;2023-05-07T09:01:37;3.37;;;3.10;;
60726;SDS011;46577;49.004;12.120;2023-05-07T09:04:03;4.10;;;3.70;;
60726;SDS011;46577;49.004;12.120;2023-05-07T09:06:29;3.13;;;2.80;;
60726;SDS011;46577;49.004;12.120;2023-05-07T09:08:55;4.63;;;3.23;;
60726;SDS011;46577;49.004;12.120;2023-05-07T09:11:21;3.17;;;2.87;;
60726;SDS011;46577;49.004;12.120;2023-05-07T09:13:47;4.20;;;2.90;;
60726;SDS011;46577;49.004;12.120;2023-05-07T09:16:15;3.97;;;3.63;;
60726;SDS011;46577;49.004;12.120;2023-05-07T09:18:43;3.43;;;3.13;;
60726;SDS011;46577;49.004;12.120;2023-05-07T09:21:10;3.70;;;3.33;;
60726;SDS011;46577;49.004;12.120;2023-05-07T09:23:42;3.47;;;3.17;;
60726;SDS011;46577;49.004;12.120;2023-05-07T09:26:08;2.90;;;2.70;;
60726;SDS011;46577;49.004;12.120;2023-05-07T09:28:42;3.93;;;3.23;;
60726;SDS011;46577;49.004;12.120;2023-05-07T09:31:09;2.67;;;2.47;;
60726;SDS011;46577;49.004;12.120;2023-05-07T09:33:35;3.40;;;3.03;;
60726;SDS011;46577;49.004;12.120;2023-05-07T09:36:02;2.87;;;2.50;;
60726;SDS011;46577;49.004;12.120;2023-05-07T09:38:28;3.80;;;2.77;;
60726;SDS011;46577;49.004;12.120;2023-05-07T09:41:04;3.50;;;2.77;;
60726;SDS011;46577;49.004;12.120;2023-05-07T09:43:32;3.40;;;2.30;;
60726;SDS011;46577;49.004;12.120;2023-05-07T09:46:02;2.30;;;2.20;;
60726;SDS011;46577;49.004;12.120;2023-05-07T09:48:31;3.85;;;2.20;;
60726;SDS011;46577;49.004;12.120;2023-05-07T09:51:01;3.50;;;2.42;;
60726;SDS011;46577;49.004;12.120;2023-05-07T09:53:29;2.88;;;2.33;;
60726;SDS011;46577;49.004;12.120;2023-05-07T09:55:56;2.78;;;2.08;;
60726;SDS011;46577;49.004;12.120;2023-05-07T09:58:23;2.33;;;2.10;;
60726;SDS011;46577;49.004;12.120;2023-05-07T10:00:50;2.83;;;2.60;;
60726;SDS011;46577;49.004;12.120;2023-05-07T10:03:17;2.67;;;2.20;;
60726;SDS011;46577;49.004;12.120;2023-05-07T10:05:45;2.75;;;2.55;;
60726;SDS011;46577;49.004;12.120;2023-05-07T10:08:12;2.88;;;2.67;;
60726;SDS011;46577;49.004;12.120;2023-05-07T10:10:39;3.22;;;3.03;;
60726;SDS011;46577;49.004;12.120;2023-05-07T10:13:06;4.25;;;3.00;;
60726;SDS011;46577;49.004;12.120;2023-05-07T10:15:35;3.75;;;3.45;;
60726;SDS011;46577;49.004;12.120;2023-05-07T10:18:02;3.53;;;2.72;;
60726;SDS011;46577;49.004;12.120;2023-05-07T10:20:28;3.17;;;2.88;;
60726;SDS011;46577;49.004;12.120;2023-05-07T10:22:54;2.85;;;2.65;;
60726;SDS011;46577;49.004;12.120;2023-05-07T10:25:28;3.10;;;2.80;;
60726;SDS011;46577;49.004;12.120;2023-05-07T10:27:57;2.30;;;2.20;;
60726;SDS011;46577;49.004;12.120;2023-05-07T10:30:40;2.72;;;2.50;;
60726;SDS011;46577;49.004;12.120;2023-05-07T10:33:13;4.40;;;2.63;;
60726;SDS011;46577;49.004;12.120;2023-05-07T10:35:42;2.90;;;2.50;;
60726;SDS011;46577;49.004;12.120;2023-05-07T10:38:10;4.03;;;2.22;;
60726;SDS011;46577;49.004;12.120;2023-05-07T10:40:36;3.13;;;2.58;;
60726;SDS011;46577;49.004;12.120;2023-05-07T10:43:02;3.05;;;2.10;;
60726;SDS011;46577;49.004;12.120;2023-05-07T10:45:32;1.88;;;1.65;;
60726;SDS011;46577;49.004;12.120;2023-05-07T10:48:14;2.78;;;1.88;;
60726;SDS011;46577;49.004;12.120;2023-05-07T10:50:41;2.42;;;2.25;;
60726;SDS011;46577;49.004;12.120;2023-05-07T10:55:42;3.70;;;2.22;;
60726;SDS011;46577;49.004;12.120;2023-05-07T10:58:28;2.90;;;2.40;;
60726;SDS011;46577;49.004;12.120;2023-05-07T11:00:56;2.60;;;2.40;;
60726;SDS011;46577;49.004;12.120;2023-05-07T11:03:26;2.30;;;2.10;;
60726;SDS011;46577;49.004;12.120;2023-05-07T11:08:53;2.53;;;2.30;;
60726;SDS011;46577;49.004;12.120;2023-05-07T11:11:42;2.30;;;2.10;;
60726;SDS011;46577;49.004;12.120;2023-05-07T11:14:09;6.05;;;5.45;;
60726;SDS011;46577;49.004;12.120;2023-05-07T11:16:34;2.90;;;2.20;;
60726;SDS011;46577;49.004;12.120;2023-05-07T11:19:01;2.95;;;2.10;;
60726;SDS011;46577;49.004;12.120;2023-05-07T11:21:37;4.95;;;4.50;;
60726;SDS011;46577;49.004;12.120;2023-05-07T11:24:04;3.28;;;3.00;;
60726;SDS011;46577;49.004;12.120;2023-05-07T11:26:41;2.70;;;2.50;;
60726;SDS011;46577;49.004;12.120;2023-05-07T11:29:12;5.13;;;4.23;;
60726;SDS011;46577;49.004;12.120;2023-05-07T11:31:39;8.47;;;7.67;;
60726;SDS011;46577;49.004;12.120;2023-05-07T11:34:05;4.00;;;3.23;;
60726;SDS011;46577;49.004;12.120;2023-05-07T11:36:31;3.53;;;3.00;;
60726;SDS011;46577;49.004;12.120;2023-05-07T11:38:57;3.37;;;3.07;;
60726;SDS011;46577;49.004;12.120;2023-05-07T11:41:32;3.93;;;3.23;;
60726;SDS011;46577;49.004;12.120;2023-05-07T11:44:01;6.40;;;4.30;;
60726;SDS011;46577;49.004;12.120;2023-05-07T11:46:28;6.00;;;4.50;;
60726;SDS011;46577;49.004;12.120;2023-05-07T11:48:54;4.77;;;3.33;;
60726;SDS011;46577;49.004;12.120;2023-05-07T11:51:22;11.00;;;5.97;;
60726;SDS011;46577;49.004;12.120;2023-05-07T11:53:48;8.00;;;5.17;;
60726;SDS011;46577;49.004;12.120;2023-05-07T11:56:16;7.07;;;4.77;;
60726;SDS011;46577;49.004;12.120;2023-05-07T11:58:43;5.17;;;4.67;;
60726;SDS011;46577;49.004;12.120;2023-05-07T12:01:10;4.57;;;3.30;;
60726;SDS011;46577;49.004;12.120;2023-05-07T12:03:39;5.83;;;4.40;;
60726;SDS011;46577;49.004;12.120;2023-05-07T12:06:07;11.83;;;4.17;;
60726;SDS011;46577;49.004;12.120;2023-05-07T12:08:36;6.90;;;4.13;;
60726;SDS011;46577;49.004;12.120;2023-05-07T12:11:03;4.80;;;4.10;;
60726;SDS011;46577;49.004;12.120;2023-05-07T12:13:32;5.50;;;4.43;;
60726;SDS011;46577;49.004;12.120;2023-05-07T12:15:58;4.20;;;3.80;;
60726;SDS011;46577;49.004;12.120;2023-05-07T12:18:24;3.63;;;3.30;;
60726;SDS011;46577;49.004;12.120;2023-05-07T12:20:50;6.83;;;4.00;;
60726;SDS011;46577;49.004;12.120;2023-05-07T12:23:16;2.93;;;2.73;;
60726;SDS011;46577;49.004;12.120;2023-05-07T12:25:42;3.57;;;3.27;;
60726;SDS011;46577;49.004;12.120;2023-05-07T12:28:13;3.67;;;3.27;;
60726;SDS011;46577;49.004;12.120;2023-05-07T12:30:42;3.30;;;3.00;;
60726;SDS011;46577;49.004;12.120;2023-05-07T12:33:08;5.70;;;3.90;;
60726;SDS011;46577;49.004;12.120;2023-05-07T12:35:39;4.10;;;3.40;;
60726;SDS011;46577;49.004;12.120;2023-05-07T12:38:09;5.33;;;3.37;;
60726;SDS011;46577;49.004;12.120;2023-05-07T12:43:07;5.33;;;3.73;;
60726;SDS011;46577;49.004;12.120;2023-05-07T12:45:38;5.27;;;3.60;;
60726;SDS011;46577;49.004;12.120;2023-05-07T12:48:04;3.57;;;3.20;;
60726;SDS011;46577;49.004;12.120;2023-05-07T12:50:33;7.10;;;4.27;;
60726;SDS011;46577;49.004;12.120;2023-05-07T12:52:58;3.83;;;3.37;;
60726;SDS011;46577;49.004;12.120;2023-05-07T12:55:25;6.90;;;3.60;;
60726;SDS011;46577;49.004;12.120;2023-05-07T12:57:51;4.20;;;3.20;;
60726;SDS011;46577;49.004;12.120;2023-05-07T13:00:31;3.70;;;3.40;;
60726;SDS011;46577;49.004;12.120;2023-05-07T13:03:01;8.23;;;3.67;;
60726;SDS011;46577;49.004;12.120;2023-05-07T13:05:26;5.40;;;3.57;;
60726;SDS011;46577;49.004;12.120;2023-05-07T13:07:55;3.90;;;3.60;;
60726;SDS011;46577;49.004;12.120;2023-05-07T13:10:25;4.83;;;3.67;;
60726;SDS011;46577;49.004;12.120;2023-05-07T13:12:50;4.63;;;3.53;;
60726;SDS011;46577;49.004;12.120;2023-05-07T13:15:16;3.60;;;3.30;;
60726;SDS011;46577;49.004;12.120;2023-05-07T13:17:42;6.10;;;3.23;;
60726;SDS011;46577;49.004;12.120;2023-05-07T13:20:09;6.50;;;3.23;;
60726;SDS011;46577;49.004;12.120;2023-05-07T13:22:36;4.17;;;3.30;;
60726;SDS011;46577;49.004;12.120;2023-05-07T13:25:02;4.20;;;3.10;;
60726;SDS011;46577;49.004;12.120;2023-05-07T13:27:27;4.60;;;3.30;;
60726;SDS011;46577;49.004;12.120;2023-05-07T13:29:55;3.63;;;3.20;;
60726;SDS011;46577;49.004;12.120;2023-05-07T13:32:21;4.60;;;3.27;;
60726;SDS011;46577;49.004;12.120;2023-05-07T13:34:47;3.20;;;3.00;;
60726;SDS011;46577;49.004;12.120;2023-05-07T13:37:12;4.83;;;3.20;;
60726;SDS011;46577;49.004;12.120;2023-05-07T13:39:38;4.87;;;3.53;;
60726;SDS011;46577;49.004;12.120;2023-05-07T13:42:03;2.93;;;2.63;;
60726;SDS011;46577;49.004;12.120;2023-05-07T13:44:29;4.90;;;3.63;;
60726;SDS011;46577;49.004;12.120;2023-05-07T13:46:54;4.10;;;2.80;;
60726;SDS011;46577;49.004;12.120;2023-05-07T13:49:20;3.63;;;3.33;;
60726;SDS011;46577;49.004;12.120;2023-05-07T13:51:46;4.90;;;3.53;;
60726;SDS011;46577;49.004;12.120;2023-05-07T13:54:11;3.50;;;3.20;;
60726;SDS011;46577;49.004;12.120;2023-05-07T13:56:37;4.10;;;3.33;;
60726;SDS011;46577;49.004;12.120;2023-05-07T13:59:03;3.10;;;2.80;;
60726;SDS011;46577;49.004;12.120;2023-05-07T14:01:28;5.43;;;3.07;;
60726;SDS011;46577;49.004;12.120;2023-05-07T14:03:55;4.83;;;4.23;;
60726;SDS011;46577;49.004;12.120;2023-05-07T14:06:22;3.40;;;3.10;;
60726;SDS011;46577;49.004;12.120;2023-05-07T14:08:47;7.53;;;3.30;;
60726;SDS011;46577;49.004;12.120;2023-05-07T14:11:13;3.20;;;2.90;;
60726;SDS011;46577;49.004;12.120;2023-05-07T14:13:39;6.10;;;3.70;;
60726;SDS011;46577;49.004;12.120;2023-05-07T14:16:05;4.27;;;3.50;;
60726;SDS011;46577;49.004;12.120;2023-05-07T14:18:30;5.43;;;3.27;;
60726;SDS011;46577;49.004;12.120;2023-05-07T14:20:56;4.27;;;3.40;;
60726;SDS011;46577;49.004;12.120;2023-05-07T14:23:21;7.43;;;3.13;;
60726;SDS011;46577;49.004;12.120;2023-05-07T14:25:51;9.43;;;3.53;;
60726;SDS011;46577;49.004;12.120;2023-05-07T14:28:17;3.30;;;3.00;;
60726;SDS011;46577;49.004;12.120;2023-05-07T14:30:43;3.70;;;3.40;;
60726;SDS011;46577;49.004;12.120;2023-05-07T14:33:09;3.57;;;3.20;;
60726;SDS011;46577;49.004;12.120;2023-05-07T14:35:34;5.73;;;4.93;;